sensor_id;sensor_type;location;lat;lon;timestamp;P1;durP1;ratioP1;P2;durP2;ratioP2
43710;SDS011;29309;42.682;23.372;2023-02-26T00:02:14;10.77;;;3.80;;
43710;SDS011;29309;42.682;23.372;2023-02-26T00:04:40;9.90;;;3.45;;
43710;SDS011;29309;42.682;23.372;2023-02-26T00:07:06;10.10;;;3.55;;
43710;SDS011;29309;42.682;23.372;2023-02-26T00:09:31;9.23;;;3.20;;
43710;SDS011;29309;42.682;23.372;2023-02-26T00:11:57;9.32;;;3.55;;
43710;SDS011;29309;42.682;23.372;2023-02-26T00:14:24;15.57;;;4.20;;
43710;SDS011;29309;42.682;23.372;2023-02-26T00:16:57;12.68;;;4.47;;
43710;SDS011;29309;42.682;23.372;2023-02-26T00:19:47;14.32;;;4.10;;
43710;SDS011;29309;42.682;23.372;2023-02-26T00:22:13;14.80;;;4.90;;
43710;SDS011;29309;42.682;23.372;2023-02-26T00:24:38;6.95;;;3.33;;
43710;SDS011;29309;42.682;23.372;2023-02-26T00:27:04;16.25;;;4.28;;
43710;SDS011;29309;42.682;23.372;2023-02-26T00:29:29;12.43;;;3.80;;
43710;SDS011;29309;42.682;23.372;2023-02-26T00:31:55;13.07;;;3.53;;
43710;SDS011;29309;42.682;23.372;2023-02-26T00:34:21;14.27;;;3.70;;
43710;SDS011;29309;42.682;23.372;2023-02-26T00:37:02;11.43;;;3.60;;
43710;SDS011;29309;42.682;23.372;2023-02-26T00:42:02;17.05;;;3.67;;
43710;SDS011;29309;42.682;23.372;2023-02-26T00:44:28;14.43;;;3.47;;
43710;SDS011;29309;42.682;23.372;2023-02-26T00:52:38;14.32;;;4.00;;
43710;SDS011;29309;42.682;23.372;2023-02-26T00:55:07;14.57;;;3.22;;
43710;SDS011;29309;42.682;23.372;2023-02-26T00:57:32;15.38;;;4.10;;
43710;SDS011;29309;42.682;23.372;2023-02-26T00:59:58;12.82;;;4.60;;
43710;SDS011;29309;42.682;23.372;2023-02-26T01:02:23;15.65;;;3.70;;
43710;SDS011;29309;42.682;23.372;2023-02-26T01:04:49;16.77;;;4.15;;
43710;SDS011;29309;42.682;23.372;2023-02-26T01:07:15;13.77;;;3.28;;
43710;SDS011;29309;42.682;23.372;2023-02-26T01:09:46;11.27;;;3.85;;
43710;SDS011;29309;42.682;23.372;2023-02-26T01:12:11;15.38;;;3.45;;
43710;SDS011;29309;42.682;23.372;2023-02-26T01:14:37;11.88;;;3.50;;
43710;SDS011;29309;42.682;23.372;2023-02-26T01:17:24;23.65;;;5.32;;
43710;SDS011;29309;42.682;23.372;2023-02-26T01:20:00;11.05;;;3.92;;
43710;SDS011;29309;42.682;23.372;2023-02-26T01:22:40;16.45;;;3.70;;
43710;SDS011;29309;42.682;23.372;2023-02-26T01:25:14;12.73;;;3.40;;
43710;SDS011;29309;42.682;23.372;2023-02-26T01:27:42;8.88;;;3.40;;
43710;SDS011;29309;42.682;23.372;2023-02-26T01:30:08;11.02;;;2.80;;
43710;SDS011;29309;42.682;23.372;2023-02-26T01:32:48;14.35;;;4.05;;
43710;SDS011;29309;42.682;23.372;2023-02-26T01:37:49;8.95;;;3.08;;
43710;SDS011;29309;42.682;23.372;2023-02-26T01:43:17;10.43;;;2.83;;
43710;SDS011;29309;42.682;23.372;2023-02-26T01:45:54;10.82;;;2.78;;
43710;SDS011;29309;42.682;23.372;2023-02-26T01:48:41;12.93;;;4.07;;
43710;SDS011;29309;42.682;23.372;2023-02-26T01:51:09;12.73;;;3.30;;
43710;SDS011;29309;42.682;23.372;2023-02-26T01:53:35;11.20;;;2.90;;
43710;SDS011;29309;42.682;23.372;2023-02-26T01:56:02;11.15;;;3.00;;
43710;SDS011;29309;42.682;23.372;2023-02-26T01:58:31;15.32;;;3.20;;
43710;SDS011;29309;42.682;23.372;2023-02-26T02:01:00;13.18;;;2.90;;
43710;SDS011;29309;42.682;23.372;2023-02-26T02:03:26;8.90;;;2.85;;
43710;SDS011;29309;42.682;23.372;2023-02-26T02:05:57;11.88;;;3.40;;
43710;SDS011;29309;42.682;23.372;2023-02-26T02:08:29;12.80;;;3.85;;
43710;SDS011;29309;42.682;23.372;2023-02-26T02:10:57;10.85;;;3.03;;
43710;SDS011;29309;42.682;23.372;2023-02-26T02:24:57;11.05;;;3.15;;
43710;SDS011;29309;42.682;23.372;2023-02-26T02:33:04;13.40;;;2.63;;
43710;SDS011;29309;42.682;23.372;2023-02-26T02:35:49;7.97;;;1.95;;
43710;SDS011;29309;42.682;23.372;2023-02-26T02:38:33;11.93;;;3.17;;
43710;SDS011;29309;42.682;23.372;2023-02-26T02:41:10;11.65;;;2.70;;
43710;SDS011;29309;42.682;23.372;2023-02-26T02:43:42;11.93;;;2.55;;
43710;SDS011;29309;42.682;23.372;2023-02-26T02:46:11;8.98;;;2.65;;
43710;SDS011;29309;42.682;23.372;2023-02-26T02:48:42;14.32;;;3.50;;
43710;SDS011;29309;42.682;23.372;2023-02-26T02:51:16;14.07;;;3.97;;
43710;SDS011;29309;42.682;23.372;2023-02-26T02:54:03;16.48;;;3.40;;
43710;SDS011;29309;42.682;23.372;2023-02-26T02:56:35;10.60;;;3.63;;
43710;SDS011;29309;42.682;23.372;2023-02-26T03:01:33;11.52;;;2.35;;
43710;SDS011;29309;42.682;23.372;2023-02-26T03:04:07;12.57;;;2.78;;
43710;SDS011;29309;42.682;23.372;2023-02-26T03:06:35;8.18;;;3.10;;
43710;SDS011;29309;42.682;23.372;2023-02-26T03:09:01;11.20;;;3.08;;
43710;SDS011;29309;42.682;23.372;2023-02-26T03:11:28;12.05;;;2.75;;
43710;SDS011;29309;42.682;23.372;2023-02-26T03:13:55;16.77;;;2.97;;
43710;SDS011;29309;42.682;23.372;2023-02-26T03:25:09;9.77;;;2.60;;
43710;SDS011;29309;42.682;23.372;2023-02-26T03:35:27;17.05;;;2.92;;
43710;SDS011;29309;42.682;23.372;2023-02-26T03:38:00;13.13;;;2.88;;
43710;SDS011;29309;42.682;23.372;2023-02-26T03:40:32;7.78;;;2.58;;
43710;SDS011;29309;42.682;23.372;2023-02-26T03:43:09;17.90;;;2.72;;
43710;SDS011;29309;42.682;23.372;2023-02-26T03:45:42;21.45;;;3.13;;
43710;SDS011;29309;42.682;23.372;2023-02-26T03:48:12;9.68;;;2.50;;
43710;SDS011;29309;42.682;23.372;2023-02-26T03:50:43;10.68;;;2.45;;
43710;SDS011;29309;42.682;23.372;2023-02-26T03:53:12;11.75;;;1.90;;
43710;SDS011;29309;42.682;23.372;2023-02-26T03:55:44;10.63;;;2.65;;
43710;SDS011;29309;42.682;23.372;2023-02-26T03:58:14;13.85;;;2.25;;
43710;SDS011;29309;42.682;23.372;2023-02-26T04:00:40;9.75;;;2.42;;
43710;SDS011;29309;42.682;23.372;2023-02-26T04:03:10;7.45;;;2.45;;
43710;SDS011;29309;42.682;23.372;2023-02-26T04:05:44;8.45;;;2.58;;
43710;SDS011;29309;42.682;23.372;2023-02-26T04:08:16;13.93;;;3.28;;
43710;SDS011;29309;42.682;23.372;2023-02-26T04:10:43;14.98;;;3.05;;
43710;SDS011;29309;42.682;23.372;2023-02-26T04:13:09;10.30;;;2.40;;
43710;SDS011;29309;42.682;23.372;2023-02-26T04:15:34;7.70;;;3.08;;
43710;SDS011;29309;42.682;23.372;2023-02-26T04:18:00;8.80;;;2.83;;
43710;SDS011;29309;42.682;23.372;2023-02-26T04:20:25;9.18;;;2.67;;
43710;SDS011;29309;42.682;23.372;2023-02-26T04:22:50;10.68;;;2.80;;
43710;SDS011;29309;42.682;23.372;2023-02-26T04:25:16;12.43;;;2.80;;
43710;SDS011;29309;42.682;23.372;2023-02-26T04:27:41;8.18;;;3.53;;
43710;SDS011;29309;42.682;23.372;2023-02-26T04:30:07;14.07;;;2.63;;
43710;SDS011;29309;42.682;23.372;2023-02-26T04:32:34;15.25;;;3.40;;
43710;SDS011;29309;42.682;23.372;2023-02-26T04:34:59;19.20;;;3.90;;
43710;SDS011;29309;42.682;23.372;2023-02-26T04:37:25;14.82;;;3.00;;
43710;SDS011;29309;42.682;23.372;2023-02-26T04:39:50;6.68;;;3.38;;
43710;SDS011;29309;42.682;23.372;2023-02-26T04:42:16;15.30;;;3.78;;
43710;SDS011;29309;42.682;23.372;2023-02-26T04:44:41;17.67;;;2.97;;
43710;SDS011;29309;42.682;23.372;2023-02-26T04:47:06;15.35;;;3.67;;
43710;SDS011;29309;42.682;23.372;2023-02-26T04:49:32;16.90;;;3.88;;
43710;SDS011;29309;42.682;23.372;2023-02-26T04:51:57;14.27;;;3.85;;
43710;SDS011;29309;42.682;23.372;2023-02-26T04:54:23;10.13;;;2.92;;
43710;SDS011;29309;42.682;23.372;2023-02-26T04:56:51;8.75;;;3.30;;
43710;SDS011;29309;42.682;23.372;2023-02-26T04:59:17;11.27;;;3.63;;
43710;SDS011;29309;42.682;23.372;2023-02-26T05:01:43;15.57;;;4.30;;
43710;SDS011;29309;42.682;23.372;2023-02-26T05:04:08;11.43;;;3.45;;
43710;SDS011;29309;42.682;23.372;2023-02-26T05:06:34;14.10;;;3.60;;
43710;SDS011;29309;42.682;23.372;2023-02-26T05:08:59;11.10;;;3.53;;
43710;SDS011;29309;42.682;23.372;2023-02-26T05:11:25;17.88;;;3.13;;
43710;SDS011;29309;42.682;23.372;2023-02-26T05:13:50;17.27;;;4.57;;
43710;SDS011;29309;42.682;23.372;2023-02-26T05:16:16;17.50;;;4.15;;
43710;SDS011;29309;42.682;23.372;2023-02-26T05:18:41;10.73;;;4.53;;
43710;SDS011;29309;42.682;23.372;2023-02-26T05:21:07;12.80;;;3.22;;
43710;SDS011;29309;42.682;23.372;2023-02-26T05:23:32;16.80;;;3.85;;
43710;SDS011;29309;42.682;23.372;2023-02-26T05:25:58;10.90;;;4.65;;
43710;SDS011;29309;42.682;23.372;2023-02-26T05:28:24;18.98;;;4.03;;
43710;SDS011;29309;42.682;23.372;2023-02-26T05:30:50;12.70;;;4.15;;
43710;SDS011;29309;42.682;23.372;2023-02-26T05:33:16;15.73;;;3.58;;
43710;SDS011;29309;42.682;23.372;2023-02-26T05:35:41;15.27;;;4.05;;
43710;SDS011;29309;42.682;23.372;2023-02-26T05:38:07;15.68;;;4.10;;
43710;SDS011;29309;42.682;23.372;2023-02-26T05:40:32;24.42;;;3.63;;
43710;SDS011;29309;42.682;23.372;2023-02-26T05:42:57;14.88;;;2.97;;
43710;SDS011;29309;42.682;23.372;2023-02-26T05:45:23;14.57;;;3.90;;
43710;SDS011;29309;42.682;23.372;2023-02-26T05:47:48;11.90;;;2.95;;
43710;SDS011;29309;42.682;23.372;2023-02-26T05:50:14;15.05;;;2.97;;
43710;SDS011;29309;42.682;23.372;2023-02-26T05:52:39;15.70;;;3.42;;
43710;SDS011;29309;42.682;23.372;2023-02-26T05:55:05;13.00;;;3.40;;
43710;SDS011;29309;42.682;23.372;2023-02-26T05:57:31;13.65;;;2.95;;
43710;SDS011;29309;42.682;23.372;2023-02-26T05:59:56;17.88;;;2.83;;
43710;SDS011;29309;42.682;23.372;2023-02-26T06:02:22;14.70;;;3.67;;
43710;SDS011;29309;42.682;23.372;2023-02-26T06:04:47;10.50;;;3.60;;
43710;SDS011;29309;42.682;23.372;2023-02-26T06:07:13;18.02;;;3.15;;
43710;SDS011;29309;42.682;23.372;2023-02-26T06:09:38;12.07;;;3.20;;
43710;SDS011;29309;42.682;23.372;2023-02-26T06:12:04;13.45;;;2.60;;
43710;SDS011;29309;42.682;23.372;2023-02-26T06:14:30;21.88;;;3.92;;
43710;SDS011;29309;42.682;23.372;2023-02-26T06:16:56;13.70;;;4.03;;
43710;SDS011;29309;42.682;23.372;2023-02-26T06:19:22;19.95;;;3.35;;
43710;SDS011;29309;42.682;23.372;2023-02-26T06:21:47;15.75;;;3.13;;
43710;SDS011;29309;42.682;23.372;2023-02-26T06:24:13;14.20;;;2.88;;
43710;SDS011;29309;42.682;23.372;2023-02-26T06:26:38;17.95;;;3.15;;
43710;SDS011;29309;42.682;23.372;2023-02-26T06:29:04;23.08;;;3.30;;
43710;SDS011;29309;42.682;23.372;2023-02-26T06:31:29;19.27;;;3.30;;
43710;SDS011;29309;42.682;23.372;2023-02-26T06:33:55;14.60;;;3.25;;
43710;SDS011;29309;42.682;23.372;2023-02-26T06:36:20;18.63;;;3.83;;
43710;SDS011;29309;42.682;23.372;2023-02-26T06:38:46;12.73;;;3.03;;
43710;SDS011;29309;42.682;23.372;2023-02-26T06:41:11;10.57;;;2.90;;
43710;SDS011;29309;42.682;23.372;2023-02-26T06:43:37;10.25;;;2.08;;
43710;SDS011;29309;42.682;23.372;2023-02-26T06:46:04;16.35;;;2.63;;
43710;SDS011;29309;42.682;23.372;2023-02-26T06:48:29;23.88;;;3.10;;
43710;SDS011;29309;42.682;23.372;2023-02-26T06:50:55;17.90;;;3.25;;
43710;SDS011;29309;42.682;23.372;2023-02-26T06:53:20;16.75;;;3.97;;
43710;SDS011;29309;42.682;23.372;2023-02-26T06:55:48;28.38;;;2.72;;
43710;SDS011;29309;42.682;23.372;2023-02-26T06:58:15;19.55;;;2.92;;
43710;SDS011;29309;42.682;23.372;2023-02-26T07:00:40;15.98;;;2.47;;
43710;SDS011;29309;42.682;23.372;2023-02-26T07:03:06;18.83;;;2.92;;
43710;SDS011;29309;42.682;23.372;2023-02-26T07:05:34;20.95;;;3.75;;
43710;SDS011;29309;42.682;23.372;2023-02-26T07:07:59;17.67;;;2.70;;
43710;SDS011;29309;42.682;23.372;2023-02-26T07:10:25;10.25;;;2.85;;
43710;SDS011;29309;42.682;23.372;2023-02-26T07:12:50;15.23;;;3.50;;
43710;SDS011;29309;42.682;23.372;2023-02-26T07:15:16;21.90;;;4.22;;
43710;SDS011;29309;42.682;23.372;2023-02-26T07:17:42;13.95;;;3.88;;
43710;SDS011;29309;42.682;23.372;2023-02-26T07:20:08;16.90;;;3.72;;
43710;SDS011;29309;42.682;23.372;2023-02-26T07:22:35;12.95;;;3.60;;
43710;SDS011;29309;42.682;23.372;2023-02-26T07:25:02;19.33;;;3.33;;
43710;SDS011;29309;42.682;23.372;2023-02-26T07:27:28;9.57;;;2.95;;
43710;SDS011;29309;42.682;23.372;2023-02-26T07:29:54;16.75;;;3.20;;
43710;SDS011;29309;42.682;23.372;2023-02-26T07:32:19;17.50;;;2.67;;
43710;SDS011;29309;42.682;23.372;2023-02-26T07:34:45;18.23;;;3.70;;
43710;SDS011;29309;42.682;23.372;2023-02-26T07:37:11;26.85;;;4.57;;
43710;SDS011;29309;42.682;23.372;2023-02-26T07:39:37;14.02;;;2.45;;
43710;SDS011;29309;42.682;23.372;2023-02-26T07:42:02;23.50;;;3.63;;
43710;SDS011;29309;42.682;23.372;2023-02-26T07:44:28;18.75;;;2.92;;
43710;SDS011;29309;42.682;23.372;2023-02-26T07:46:53;19.40;;;3.70;;
43710;SDS011;29309;42.682;23.372;2023-02-26T07:49:19;14.73;;;2.42;;
43710;SDS011;29309;42.682;23.372;2023-02-26T07:51:45;20.08;;;3.17;;
43710;SDS011;29309;42.682;23.372;2023-02-26T07:54:14;17.77;;;3.53;;
43710;SDS011;29309;42.682;23.372;2023-02-26T07:56:57;18.83;;;5.13;;
43710;SDS011;29309;42.682;23.372;2023-02-26T07:59:23;18.80;;;2.55;;
43710;SDS011;29309;42.682;23.372;2023-02-26T08:01:48;14.82;;;2.60;;
43710;SDS011;29309;42.682;23.372;2023-02-26T08:04:14;17.73;;;2.65;;
43710;SDS011;29309;42.682;23.372;2023-02-26T08:06:39;18.48;;;3.50;;
43710;SDS011;29309;42.682;23.372;2023-02-26T08:09:05;10.75;;;2.35;;
43710;SDS011;29309;42.682;23.372;2023-02-26T08:11:30;17.10;;;3.67;;
43710;SDS011;29309;42.682;23.372;2023-02-26T08:14:03;9.07;;;2.60;;
43710;SDS011;29309;42.682;23.372;2023-02-26T08:16:29;14.20;;;3.22;;
43710;SDS011;29309;42.682;23.372;2023-02-26T08:18:55;16.92;;;2.88;;
43710;SDS011;29309;42.682;23.372;2023-02-26T08:21:20;13.20;;;3.03;;
43710;SDS011;29309;42.682;23.372;2023-02-26T08:23:45;18.65;;;2.63;;
43710;SDS011;29309;42.682;23.372;2023-02-26T08:26:12;25.67;;;4.35;;
43710;SDS011;29309;42.682;23.372;2023-02-26T08:28:38;23.27;;;4.35;;
43710;SDS011;29309;42.682;23.372;2023-02-26T08:31:04;22.85;;;3.50;;
43710;SDS011;29309;42.682;23.372;2023-02-26T08:33:30;16.25;;;3.88;;
43710;SDS011;29309;42.682;23.372;2023-02-26T08:35:56;12.48;;;2.63;;
43710;SDS011;29309;42.682;23.372;2023-02-26T08:38:23;15.20;;;3.40;;
43710;SDS011;29309;42.682;23.372;2023-02-26T08:40:49;13.07;;;3.13;;
43710;SDS011;29309;42.682;23.372;2023-02-26T08:43:16;17.58;;;3.58;;
43710;SDS011;29309;42.682;23.372;2023-02-26T08:45:43;14.98;;;3.28;;
43710;SDS011;29309;42.682;23.372;2023-02-26T08:48:09;11.48;;;3.20;;
43710;SDS011;29309;42.682;23.372;2023-02-26T08:50:34;13.00;;;2.88;;
43710;SDS011;29309;42.682;23.372;2023-02-26T08:53:00;19.27;;;3.13;;
43710;SDS011;29309;42.682;23.372;2023-02-26T08:55:25;15.98;;;2.25;;
43710;SDS011;29309;42.682;23.372;2023-02-26T08:57:52;22.02;;;4.53;;
43710;SDS011;29309;42.682;23.372;2023-02-26T09:00:17;11.65;;;3.03;;
43710;SDS011;29309;42.682;23.372;2023-02-26T09:02:43;14.57;;;2.95;;
43710;SDS011;29309;42.682;23.372;2023-02-26T09:05:09;20.67;;;4.53;;
43710;SDS011;29309;42.682;23.372;2023-02-26T09:07:36;17.10;;;2.92;;
43710;SDS011;29309;42.682;23.372;2023-02-26T09:10:02;20.27;;;5.47;;
43710;SDS011;29309;42.682;23.372;2023-02-26T09:12:28;17.75;;;3.08;;
43710;SDS011;29309;42.682;23.372;2023-02-26T09:14:53;15.95;;;2.97;;
43710;SDS011;29309;42.682;23.372;2023-02-26T09:17:19;19.05;;;2.83;;
43710;SDS011;29309;42.682;23.372;2023-02-26T09:19:44;13.00;;;3.05;;
43710;SDS011;29309;42.682;23.372;2023-02-26T09:22:10;23.70;;;3.92;;
43710;SDS011;29309;42.682;23.372;2023-02-26T09:24:35;16.30;;;4.57;;
43710;SDS011;29309;42.682;23.372;2023-02-26T09:27:01;20.55;;;2.67;;
43710;SDS011;29309;42.682;23.372;2023-02-26T09:29:27;15.50;;;2.53;;
43710;SDS011;29309;42.682;23.372;2023-02-26T09:31:53;17.10;;;3.70;;
43710;SDS011;29309;42.682;23.372;2023-02-26T09:34:18;15.18;;;2.78;;
43710;SDS011;29309;42.682;23.372;2023-02-26T09:36:44;17.38;;;2.72;;
43710;SDS011;29309;42.682;23.372;2023-02-26T09:39:10;23.35;;;3.08;;
43710;SDS011;29309;42.682;23.372;2023-02-26T09:41:46;22.88;;;3.35;;
43710;SDS011;29309;42.682;23.372;2023-02-26T09:44:20;16.40;;;4.03;;
43710;SDS011;29309;42.682;23.372;2023-02-26T09:49:47;15.93;;;3.88;;
43710;SDS011;29309;42.682;23.372;2023-02-26T09:54:47;23.00;;;3.78;;
43710;SDS011;29309;42.682;23.372;2023-02-26T09:57:35;12.75;;;3.22;;
43710;SDS011;29309;42.682;23.372;2023-02-26T10:00:21;11.10;;;3.15;;
43710;SDS011;29309;42.682;23.372;2023-02-26T10:14:12;23.05;;;3.13;;
43710;SDS011;29309;42.682;23.372;2023-02-26T10:16:42;21.58;;;3.33;;
43710;SDS011;29309;42.682;23.372;2023-02-26T10:19:13;18.63;;;3.63;;
43710;SDS011;29309;42.682;23.372;2023-02-26T10:21:44;14.75;;;3.17;;
43710;SDS011;29309;42.682;23.372;2023-02-26T10:24:14;19.42;;;3.58;;
43710;SDS011;29309;42.682;23.372;2023-02-26T10:29:48;13.52;;;3.28;;
43710;SDS011;29309;42.682;23.372;2023-02-26T10:37:32;8.70;;;3.05;;
43710;SDS011;29309;42.682;23.372;2023-02-26T10:40:13;7.35;;;2.20;;
43710;SDS011;29309;42.682;23.372;2023-02-26T10:50:26;23.95;;;2.85;;
43710;SDS011;29309;42.682;23.372;2023-02-26T10:52:53;17.75;;;2.45;;
43710;SDS011;29309;42.682;23.372;2023-02-26T10:58:10;18.08;;;2.55;;
43710;SDS011;29309;42.682;23.372;2023-02-26T11:00:39;7.28;;;2.03;;
43710;SDS011;29309;42.682;23.372;2023-02-26T11:03:06;24.00;;;2.92;;
43710;SDS011;29309;42.682;23.372;2023-02-26T11:05:37;10.05;;;2.80;;
43710;SDS011;29309;42.682;23.372;2023-02-26T11:08:04;16.88;;;3.78;;
43710;SDS011;29309;42.682;23.372;2023-02-26T11:10:40;20.33;;;3.55;;
43710;SDS011;29309;42.682;23.372;2023-02-26T11:13:11;7.45;;;2.08;;
43710;SDS011;29309;42.682;23.372;2023-02-26T11:15:37;10.85;;;2.35;;
43710;SDS011;29309;42.682;23.372;2023-02-26T11:18:03;11.80;;;3.17;;
43710;SDS011;29309;42.682;23.372;2023-02-26T11:22:54;12.50;;;2.47;;
43710;SDS011;29309;42.682;23.372;2023-02-26T11:25:24;17.05;;;2.33;;
43710;SDS011;29309;42.682;23.372;2023-02-26T11:27:53;16.55;;;2.55;;
43710;SDS011;29309;42.682;23.372;2023-02-26T11:30:25;18.13;;;3.33;;
43710;SDS011;29309;42.682;23.372;2023-02-26T11:32:58;12.18;;;3.10;;
43710;SDS011;29309;42.682;23.372;2023-02-26T11:35:31;18.98;;;3.00;;
43710;SDS011;29309;42.682;23.372;2023-02-26T11:38:00;14.50;;;2.45;;
43710;SDS011;29309;42.682;23.372;2023-02-26T11:43:04;14.85;;;2.65;;
43710;SDS011;29309;42.682;23.372;2023-02-26T11:45:36;18.13;;;4.05;;
43710;SDS011;29309;42.682;23.372;2023-02-26T11:48:06;14.15;;;4.63;;
43710;SDS011;29309;42.682;23.372;2023-02-26T11:50:45;21.63;;;3.00;;
43710;SDS011;29309;42.682;23.372;2023-02-26T11:53:17;12.35;;;2.72;;
43710;SDS011;29309;42.682;23.372;2023-02-26T11:56:13;14.13;;;3.28;;
43710;SDS011;29309;42.682;23.372;2023-02-26T11:58:44;13.95;;;3.00;;
43710;SDS011;29309;42.682;23.372;2023-02-26T12:01:11;14.55;;;3.67;;
43710;SDS011;29309;42.682;23.372;2023-02-26T12:03:42;12.35;;;3.42;;
43710;SDS011;29309;42.682;23.372;2023-02-26T12:06:20;17.42;;;4.53;;
43710;SDS011;29309;42.682;23.372;2023-02-26T12:08:48;12.60;;;2.60;;
43710;SDS011;29309;42.682;23.372;2023-02-26T12:14:07;13.73;;;2.60;;
43710;SDS011;29309;42.682;23.372;2023-02-26T12:40:00;20.65;;;4.13;;
43710;SDS011;29309;42.682;23.372;2023-02-26T12:42:47;21.65;;;4.35;;
43710;SDS011;29309;42.682;23.372;2023-02-26T12:45:40;13.18;;;3.30;;
43710;SDS011;29309;42.682;23.372;2023-02-26T12:56:42;37.85;;;4.60;;
43710;SDS011;29309;42.682;23.372;2023-02-26T12:59:36;13.98;;;3.42;;
43710;SDS011;29309;42.682;23.372;2023-02-26T13:02:23;16.27;;;3.25;;
43710;SDS011;29309;42.682;23.372;2023-02-26T13:05:24;20.25;;;3.58;;
43710;SDS011;29309;42.682;23.372;2023-02-26T13:08:06;18.48;;;2.80;;
43710;SDS011;29309;42.682;23.372;2023-02-26T13:16:43;25.38;;;3.72;;
43710;SDS011;29309;42.682;23.372;2023-02-26T13:27:17;18.70;;;3.28;;
43710;SDS011;29309;42.682;23.372;2023-02-26T13:29:46;18.67;;;3.72;;
43710;SDS011;29309;42.682;23.372;2023-02-26T13:32:22;16.38;;;3.67;;
43710;SDS011;29309;42.682;23.372;2023-02-26T13:34:56;17.73;;;3.92;;
43710;SDS011;29309;42.682;23.372;2023-02-26T13:37:41;20.77;;;3.15;;
43710;SDS011;29309;42.682;23.372;2023-02-26T13:46:15;19.90;;;3.10;;
43710;SDS011;29309;42.682;23.372;2023-02-26T13:51:35;17.42;;;3.17;;
43710;SDS011;29309;42.682;23.372;2023-02-26T13:54:07;23.05;;;5.32;;
43710;SDS011;29309;42.682;23.372;2023-02-26T13:59:31;19.92;;;3.85;;
43710;SDS011;29309;42.682;23.372;2023-02-26T14:04:56;18.95;;;3.55;;
43710;SDS011;29309;42.682;23.372;2023-02-26T14:07:44;26.48;;;3.47;;
43710;SDS011;29309;42.682;23.372;2023-02-26T14:10:16;26.38;;;3.83;;
43710;SDS011;29309;42.682;23.372;2023-02-26T14:13:07;14.00;;;3.30;;
43710;SDS011;29309;42.682;23.372;2023-02-26T14:15:38;15.82;;;3.47;;
43710;SDS011;29309;42.682;23.372;2023-02-26T14:18:50;24.00;;;4.03;;
43710;SDS011;29309;42.682;23.372;2023-02-26T14:23:51;22.65;;;4.32;;
43710;SDS011;29309;42.682;23.372;2023-02-26T14:26:24;24.88;;;5.18;;
43710;SDS011;29309;42.682;23.372;2023-02-26T14:29:06;27.17;;;4.80;;
43710;SDS011;29309;42.682;23.372;2023-02-26T14:35:11;22.95;;;4.65;;
43710;SDS011;29309;42.682;23.372;2023-02-26T14:37:34;23.90;;;3.90;;
43710;SDS011;29309;42.682;23.372;2023-02-26T14:45:28;30.30;;;4.45;;
43710;SDS011;29309;42.682;23.372;2023-02-26T14:47:55;28.00;;;4.95;;
43710;SDS011;29309;42.682;23.372;2023-02-26T14:50:28;25.50;;;4.30;;
43710;SDS011;29309;42.682;23.372;2023-02-26T15:04:19;29.00;;;7.28;;
43710;SDS011;29309;42.682;23.372;2023-02-26T15:17:57;45.20;;;8.85;;
43710;SDS011;29309;42.682;23.372;2023-02-26T15:21:09;31.55;;;5.85;;
43710;SDS011;29309;42.682;23.372;2023-02-26T15:23:48;27.58;;;6.70;;
43710;SDS011;29309;42.682;23.372;2023-02-26T15:26:23;26.10;;;6.23;;
43710;SDS011;29309;42.682;23.372;2023-02-26T15:28:52;30.98;;;4.18;;
43710;SDS011;29309;42.682;23.372;2023-02-26T15:31:45;41.70;;;9.90;;
43710;SDS011;29309;42.682;23.372;2023-02-26T15:34:16;32.45;;;6.78;;
43710;SDS011;29309;42.682;23.372;2023-02-26T15:36:45;43.25;;;9.02;;
43710;SDS011;29309;42.682;23.372;2023-02-26T15:39:14;22.83;;;5.13;;
43710;SDS011;29309;42.682;23.372;2023-02-26T15:41:41;25.90;;;5.85;;
43710;SDS011;29309;42.682;23.372;2023-02-26T15:44:08;24.92;;;5.43;;
43710;SDS011;29309;42.682;23.372;2023-02-26T15:46:39;28.08;;;4.38;;
43710;SDS011;29309;42.682;23.372;2023-02-26T15:49:29;24.30;;;5.40;;
43710;SDS011;29309;42.682;23.372;2023-02-26T15:52:07;18.17;;;4.88;;
43710;SDS011;29309;42.682;23.372;2023-02-26T15:54:41;20.83;;;5.05;;
43710;SDS011;29309;42.682;23.372;2023-02-26T15:57:10;28.70;;;7.03;;
43710;SDS011;29309;42.682;23.372;2023-02-26T15:59:40;30.38;;;5.28;;
43710;SDS011;29309;42.682;23.372;2023-02-26T16:02:12;24.35;;;4.88;;
43710;SDS011;29309;42.682;23.372;2023-02-26T16:04:41;26.35;;;6.05;;
43710;SDS011;29309;42.682;23.372;2023-02-26T16:07:10;35.33;;;4.82;;
43710;SDS011;29309;42.682;23.372;2023-02-26T16:09:41;25.77;;;4.13;;
43710;SDS011;29309;42.682;23.372;2023-02-26T16:12:17;25.45;;;7.32;;
43710;SDS011;29309;42.682;23.372;2023-02-26T16:17:28;29.20;;;4.72;;
43710;SDS011;29309;42.682;23.372;2023-02-26T16:19:57;22.98;;;5.75;;
43710;SDS011;29309;42.682;23.372;2023-02-26T16:22:28;21.27;;;4.57;;
43710;SDS011;29309;42.682;23.372;2023-02-26T16:25:08;22.38;;;5.15;;
43710;SDS011;29309;42.682;23.372;2023-02-26T16:27:47;19.48;;;5.13;;
43710;SDS011;29309;42.682;23.372;2023-02-26T16:30:30;22.42;;;4.55;;
43710;SDS011;29309;42.682;23.372;2023-02-26T16:33:00;21.13;;;4.78;;
43710;SDS011;29309;42.682;23.372;2023-02-26T16:35:27;19.95;;;5.10;;
43710;SDS011;29309;42.682;23.372;2023-02-26T16:37:58;28.98;;;6.97;;
43710;SDS011;29309;42.682;23.372;2023-02-26T16:40:34;24.98;;;4.95;;
43710;SDS011;29309;42.682;23.372;2023-02-26T16:43:04;21.40;;;5.32;;
43710;SDS011;29309;42.682;23.372;2023-02-26T16:45:45;20.70;;;4.90;;
43710;SDS011;29309;42.682;23.372;2023-02-26T16:48:20;21.02;;;5.03;;
43710;SDS011;29309;42.682;23.372;2023-02-26T16:50:58;18.77;;;4.53;;
43710;SDS011;29309;42.682;23.372;2023-02-26T16:53:34;24.45;;;6.65;;
43710;SDS011;29309;42.682;23.372;2023-02-26T16:56:01;27.77;;;5.47;;
43710;SDS011;29309;42.682;23.372;2023-02-26T16:58:28;18.92;;;5.00;;
43710;SDS011;29309;42.682;23.372;2023-02-26T17:01:04;24.48;;;4.75;;
43710;SDS011;29309;42.682;23.372;2023-02-26T17:03:33;29.70;;;5.90;;
43710;SDS011;29309;42.682;23.372;2023-02-26T17:06:00;20.85;;;7.30;;
43710;SDS011;29309;42.682;23.372;2023-02-26T17:08:34;26.60;;;5.50;;
43710;SDS011;29309;42.682;23.372;2023-02-26T17:11:06;15.43;;;4.75;;
43710;SDS011;29309;42.682;23.372;2023-02-26T17:13:42;35.05;;;7.47;;
43710;SDS011;29309;42.682;23.372;2023-02-26T17:16:08;18.50;;;5.25;;
43710;SDS011;29309;42.682;23.372;2023-02-26T17:18:36;27.98;;;5.60;;
43710;SDS011;29309;42.682;23.372;2023-02-26T17:21:02;32.30;;;5.53;;
43710;SDS011;29309;42.682;23.372;2023-02-26T17:23:34;19.25;;;4.70;;
43710;SDS011;29309;42.682;23.372;2023-02-26T17:26:02;24.42;;;4.78;;
43710;SDS011;29309;42.682;23.372;2023-02-26T17:28:32;25.38;;;6.35;;
43710;SDS011;29309;42.682;23.372;2023-02-26T17:31:04;18.92;;;5.75;;
43710;SDS011;29309;42.682;23.372;2023-02-26T17:33:30;26.05;;;8.82;;
43710;SDS011;29309;42.682;23.372;2023-02-26T17:35:57;24.38;;;9.30;;
43710;SDS011;29309;42.682;23.372;2023-02-26T17:38:24;27.17;;;9.05;;
43710;SDS011;29309;42.682;23.372;2023-02-26T17:40:50;32.88;;;8.77;;
43710;SDS011;29309;42.682;23.372;2023-02-26T17:43:19;28.70;;;9.35;;
43710;SDS011;29309;42.682;23.372;2023-02-26T17:45:45;23.52;;;7.00;;
43710;SDS011;29309;42.682;23.372;2023-02-26T17:48:12;26.92;;;7.05;;
43710;SDS011;29309;42.682;23.372;2023-02-26T17:53:19;22.48;;;6.90;;